createdAt,value
2018-05-09T00:03:33.309Z,100796.70
2018-05-09T00:08:24.385Z,100797.06
2018-05-09T00:13:15.484Z,100800.72
2018-05-09T00:18:07.245Z,100796.41
2018-05-09T00:22:58.267Z,100793.47
2018-05-09T00:27:49.377Z,100792.81
2018-05-09T00:32:41.153Z,100788.15
2018-05-09T00:37:32.235Z,100791.18
2018-05-09T00:42:23.225Z,100785.08
2018-05-09T00:47:14.262Z,100783.87
2018-05-09T00:52:05.315Z,100784.19
2018-05-09T00:56:57.075Z,100786.02
2018-05-09T01:01:48.115Z,100778.11
2018-05-09T01:06:39.155Z,100774.44
2018-05-09T01:11:30.213Z,100775.47
2018-05-09T01:16:22.016Z,100766.52
2018-05-09T01:21:13.029Z,100769.73
2018-05-09T01:26:04.106Z,100773.22
2018-05-09T01:30:55.141Z,100769.97
2018-05-09T01:35:46.178Z,100770.83
2018-05-09T01:40:37.953Z,100763.63
2018-05-09T01:45:28.978Z,100759.99
2018-05-09T01:50:20.038Z,100756.32
2018-05-09T01:55:11.210Z,100753.61
2018-05-09T02:00:02.253Z,100751.03
2018-05-09T02:04:53.278Z,100754.48
2018-05-09T02:09:44.308Z,100751.48
2018-05-09T02:14:35.379Z,100755.16
2018-05-09T02:19:27.164Z,100750.69
2018-05-09T02:24:18.176Z,100757.95
2018-05-09T02:29:09.227Z,100751.06
2018-05-09T02:34:00.273Z,100752.16
2018-05-09T02:38:51.349Z,100737.05
2018-05-09T02:43:42.455Z,100739.23
2018-05-09T02:48:33.428Z,100736.25
2018-05-09T02:53:24.444Z,100741.20
2018-05-09T02:58:15.464Z,100744.23
2018-05-09T03:03:06.522Z,100740.55
2018-05-09T03:07:58.280Z,100744.95
2018-05-09T03:12:50.063Z,100734.61
2018-05-09T03:17:41.111Z,100740.50
2018-05-09T03:22:32.131Z,100728.11
2018-05-09T03:27:23.147Z,100738.08
2018-05-09T03:32:14.181Z,100732.64
2018-05-09T03:37:05.254Z,100743.66
2018-05-09T03:41:56.291Z,100735.25
2018-05-09T03:46:47.345Z,100727.77
2018-05-09T03:51:38.372Z,100728.17
2018-05-09T03:56:29.381Z,100721.36
2018-05-09T04:01:20.409Z,100730.89
2018-05-09T04:06:30.182Z,100728.34
2018-05-09T04:11:21.273Z,100722.34
2018-05-09T04:16:12.316Z,100725.31
2018-05-09T04:21:03.339Z,100716.90
2018-05-09T04:25:54.399Z,100728.34
2018-05-09T04:30:46.187Z,100737.32
2018-05-09T04:35:37.261Z,100737.84
2018-05-09T04:40:29.063Z,100732.12
2018-05-09T04:45:20.072Z,100733.07
2018-05-09T04:50:11.155Z,100736.06
2018-05-09T04:55:02.918Z,100732.13
2018-05-09T04:59:53.972Z,100739.88
2018-05-09T05:04:45.012Z,100735.09
2018-05-09T05:09:36.069Z,100737.23
2018-05-09T05:14:27.848Z,100735.59
2018-05-09T05:19:22.777Z,100743.59
2018-05-09T05:24:13.876Z,100742.64
2018-05-09T05:29:04.991Z,100727.08
2018-05-09T05:33:55.977Z,100737.83
2018-05-09T05:38:47.783Z,100736.56
2018-05-09T05:43:38.789Z,100735.05
2018-05-09T05:48:29.809Z,100738.03
2018-05-09T05:53:20.854Z,100752.98
2018-05-09T05:58:11.940Z,100743.02
2018-05-09T06:03:03.000Z,100741.47
2018-05-09T06:07:54.123Z,100738.73
2018-05-09T06:12:45.076Z,100735.55
2018-05-09T06:17:36.152Z,100740.57
2018-05-09T06:22:27.240Z,100737.78
2018-05-09T06:27:19.010Z,100744.95
2018-05-09T06:32:10.536Z,100742.84
2018-05-09T06:37:01.573Z,100742.92
2018-05-09T06:41:52.626Z,100754.17
2018-05-09T06:46:43.648Z,100747.80
2018-05-09T06:51:34.688Z,100746.46
2018-05-09T06:56:25.771Z,100745.78
2018-05-09T07:01:16.793Z,100752.13
2018-05-09T07:06:07.848Z,100746.27
2018-05-09T07:10:58.851Z,100751.06
2018-05-09T07:15:49.863Z,100739.52
2018-05-09T07:20:40.906Z,100734.00
2018-05-09T07:25:32.045Z,100731.79
2018-05-09T07:30:23.158Z,100728.37
2018-05-09T07:35:14.209Z,100739.81
2018-05-09T07:40:05.990Z,100735.95
2018-05-09T07:44:57.065Z,100742.73
2018-05-09T07:49:48.101Z,100744.81
2018-05-09T07:54:39.879Z,100744.68
2018-05-09T07:59:30.909Z,100744.08
2018-05-09T08:04:22.058Z,100742.39
2018-05-09T08:09:13.095Z,100750.67
2018-05-09T08:14:04.128Z,100748.57
2018-05-09T08:18:56.038Z,100732.69
2018-05-09T08:23:47.139Z,100726.42
2018-05-09T08:28:38.174Z,100725.91
2018-05-09T08:33:29.187Z,100726.39
2018-05-09T08:38:20.220Z,100734.30
2018-05-09T08:43:11.322Z,100738.14
2018-05-09T08:48:02.327Z,100728.44
2018-05-09T08:52:54.110Z,100730.95
2018-05-09T08:57:45.136Z,100720.08
2018-05-09T09:02:36.155Z,100714.83
2018-05-09T09:07:27.191Z,100713.89
2018-05-09T09:12:18.256Z,100711.50
2018-05-09T09:17:09.276Z,100704.30
2018-05-09T09:22:01.035Z,100703.94
2018-05-09T09:26:52.140Z,100709.28
2018-05-09T09:31:43.900Z,100701.82
2018-05-09T09:36:34.911Z,100695.84
2018-05-09T09:41:26.727Z,100693.58
2018-05-09T09:46:18.560Z,100697.08
2018-05-09T09:51:09.644Z,100690.95
2018-05-09T09:56:00.703Z,100694.31
2018-05-09T10:00:51.748Z,100684.89
2018-05-09T10:05:42.792Z,100676.20
2018-05-09T10:10:34.544Z,100665.71
2018-05-09T10:15:25.574Z,100664.17
2018-05-09T10:20:16.657Z,100665.30
2018-05-09T10:25:07.712Z,100665.42
2018-05-09T10:29:59.496Z,100664.53
2018-05-09T10:34:50.561Z,100647.69
2018-05-09T10:39:42.337Z,100652.09
2018-05-09T10:44:33.343Z,100660.84
2018-05-09T10:49:25.094Z,100655.47
2018-05-09T10:54:16.124Z,100640.26
2018-05-09T10:59:07.208Z,100628.59
2018-05-09T11:03:58.985Z,100629.04
2018-05-09T11:08:50.037Z,100625.93
2018-05-09T11:13:41.093Z,100645.61
2018-05-09T11:18:32.860Z,100633.82
2018-05-09T11:23:23.871Z,100636.66
2018-05-09T11:28:15.652Z,100623.78
2018-05-09T11:33:06.674Z,100618.05
2018-05-09T11:37:57.713Z,100604.02
2018-05-09T11:42:48.778Z,100606.02
2018-05-09T11:47:40.562Z,100599.31
2018-05-09T11:52:31.639Z,100599.07
2018-05-09T11:57:23.440Z,100601.59
2018-05-09T12:02:14.550Z,100584.90
2018-05-09T12:07:05.503Z,100591.49
2018-05-09T12:11:56.544Z,100580.61
2018-05-09T12:16:48.378Z,100580.43
2018-05-09T12:21:39.380Z,100581.89
2018-05-09T12:26:30.387Z,100579.78
2018-05-09T12:31:21.410Z,100579.55
2018-05-09T12:36:12.454Z,100571.59
2018-05-09T12:41:03.479Z,100572.98
2018-05-09T12:45:54.528Z,100563.02
2018-05-09T12:50:46.294Z,100557.42
2018-05-09T12:55:37.316Z,100551.64
2018-05-09T13:00:28.481Z,100534.00
2018-05-09T13:05:20.193Z,100532.77
2018-05-09T13:10:11.232Z,100523.75
2018-05-09T13:15:02.262Z,100530.70
2018-05-09T13:19:53.272Z,100523.32
2018-05-09T13:24:44.299Z,100524.05
2018-05-09T13:29:35.321Z,100518.49
2018-05-09T13:34:26.349Z,100512.83
2018-05-09T13:39:17.412Z,100506.07
2018-05-09T13:44:09.200Z,100503.36
2018-05-09T13:49:00.240Z,100496.48
2018-05-09T13:53:51.264Z,100485.78
2018-05-09T13:58:42.304Z,100481.72
2018-05-09T14:03:33.369Z,100481.08
2018-05-09T14:08:24.397Z,100474.33
2018-05-09T14:13:15.444Z,100473.30
2018-05-09T14:18:06.533Z,100466.12
2018-05-09T14:22:57.584Z,100469.34
2018-05-09T14:27:48.588Z,100459.27
2018-05-09T14:32:39.583Z,100450.39
2018-05-09T14:37:31.340Z,100456.80
2018-05-09T14:42:23.116Z,100443.67
2018-05-09T14:47:14.152Z,100436.14
2018-05-09T14:52:05.197Z,100434.41
2018-05-09T14:56:56.285Z,100434.34
2018-05-09T15:01:47.320Z,100425.66
2018-05-09T15:06:38.380Z,100414.15
2018-05-09T15:11:30.126Z,100424.03
2018-05-09T15:16:21.973Z,100424.55
2018-05-09T15:21:13.751Z,100424.55
2018-05-09T15:26:04.763Z,100414.06
2018-05-09T15:30:55.768Z,100406.39
2018-05-09T15:35:46.844Z,100410.11
2018-05-09T15:40:37.956Z,100408.59
2018-05-09T15:45:28.968Z,100397.94
2018-05-09T15:50:20.060Z,100395.20
2018-05-09T15:55:11.020Z,100395.03
2018-05-09T16:00:02.101Z,100388.58
2018-05-09T16:04:53.862Z,100385.94
2018-05-09T16:09:44.909Z,100385.72
2018-05-09T16:14:37.472Z,100373.19
2018-05-09T16:19:28.635Z,100377.88
2018-05-09T16:24:20.391Z,100375.23
2018-05-09T16:29:11.420Z,100360.98
2018-05-09T16:34:02.566Z,100370.27
2018-05-09T16:38:53.568Z,100371.41
2018-05-09T16:43:44.602Z,100367.70
2018-05-09T16:48:35.623Z,100369.25
2018-05-09T16:53:26.661Z,100376.70
2018-05-09T16:58:17.681Z,100378.44
2018-05-09T17:03:08.699Z,100384.64
2018-05-09T17:07:59.821Z,100375.13
2018-05-09T17:12:50.849Z,100381.78
2018-05-09T17:17:41.884Z,100373.88
2018-05-09T17:22:32.941Z,100376.09
2018-05-09T17:27:23.957Z,100377.48
2018-05-09T17:32:14.995Z,100373.06
2018-05-09T17:37:06.789Z,100367.98
2018-05-09T17:41:57.868Z,100373.86
2018-05-09T17:46:49.641Z,100375.15
2018-05-09T17:51:41.196Z,100377.10
2018-05-09T17:56:32.317Z,100382.80
2018-05-09T18:01:23.347Z,100390.52
2018-05-09T18:06:14.364Z,100415.73
2018-05-09T18:11:05.388Z,100421.21
2018-05-09T18:15:56.409Z,100426.37
2018-05-09T18:20:47.501Z,100438.72
2018-05-09T18:25:38.584Z,100431.70
2018-05-09T18:30:29.596Z,100429.27
2018-05-09T18:35:20.604Z,100430.20
2018-05-09T18:40:11.799Z,100424.16
2018-05-09T18:45:02.772Z,100410.74
2018-05-09T18:49:53.853Z,100397.86
2018-05-09T18:54:44.863Z,100398.15
2018-05-09T18:59:36.693Z,100398.69
2018-05-09T19:04:28.775Z,100389.97
2018-05-09T19:09:19.807Z,100385.22
2018-05-09T19:14:10.828Z,100388.09
2018-05-09T19:19:01.855Z,100401.20
2018-05-09T19:23:59.891Z,100390.98
2018-05-09T19:28:51.664Z,100399.69
2018-05-09T19:33:42.752Z,100395.91
2018-05-09T19:38:36.135Z,100402.74
2018-05-09T19:43:30.098Z,100408.84
2018-05-09T19:48:21.225Z,100410.28
2018-05-09T19:53:12.332Z,100405.12
2018-05-09T19:58:03.349Z,100406.83
2018-05-09T20:02:54.431Z,100398.11
2018-05-09T20:07:45.402Z,100385.83
2018-05-09T20:12:36.436Z,100387.14
2018-05-09T20:17:27.541Z,100383.91
2018-05-09T20:22:18.576Z,100386.13
2018-05-09T20:27:09.628Z,100381.41
2018-05-09T20:32:19.451Z,100393.29
2018-05-09T20:37:10.473Z,100388.11
2018-05-09T20:42:01.579Z,100381.08
2018-05-09T20:46:53.303Z,100379.87
2018-05-09T20:51:50.325Z,100393.58
2018-05-09T20:56:41.378Z,100393.56
2018-05-09T21:01:45.942Z,100403.08
2018-05-09T21:06:36.975Z,100405.73
2018-05-09T21:11:28.014Z,100413.27
2018-05-09T21:16:19.036Z,100411.81
2018-05-09T21:21:10.040Z,100409.78
2018-05-09T21:26:01.064Z,100407.35
2018-05-09T21:30:52.099Z,100409.56
2018-05-09T21:35:43.171Z,100409.90
2018-05-09T21:40:34.953Z,100411.12
2018-05-09T21:45:25.980Z,100409.25
2018-05-09T21:50:17.000Z,100412.27
2018-05-09T21:55:08.075Z,100405.66
2018-05-09T22:00:02.745Z,100406.95
2018-05-09T22:04:53.756Z,100398.62
2018-05-09T22:09:44.831Z,100394.13
2018-05-09T22:14:35.821Z,100389.17
2018-05-09T22:19:26.842Z,100389.86
2018-05-09T22:24:17.868Z,100386.39
2018-05-09T22:29:08.903Z,100382.28
2018-05-09T22:33:59.916Z,100379.74
2018-05-09T22:38:50.935Z,100374.50
2018-05-09T22:43:41.961Z,100369.43
2018-05-09T22:48:33.056Z,100369.09
2018-05-09T22:53:24.079Z,100371.22
2018-05-09T22:58:15.107Z,100360.52
2018-05-09T23:03:06.148Z,100356.14
2018-05-09T23:07:57.250Z,100358.94
2018-05-09T23:12:48.327Z,100357.31
2018-05-09T23:17:40.140Z,100360.97
2018-05-09T23:22:31.147Z,100357.51
2018-05-09T23:27:22.220Z,100360.30
2018-05-09T23:32:14.004Z,100349.80
2018-05-09T23:37:05.024Z,100350.56
2018-05-09T23:41:56.042Z,100351.36
2018-05-09T23:46:47.123Z,100351.19
2018-05-09T23:51:38.895Z,100347.17
2018-05-09T23:56:29.933Z,100354.72
